sensor_id;sensor_type;location;lat;lon;timestamp;P1;durP1;ratioP1;P2;durP2;ratioP2
8887;SDS011;4480;52.370;9.748;2023-08-01T00:00:16;1.50;;;0.90;;
8887;SDS011;4480;52.370;9.748;2023-08-01T00:02:43;1.47;;;1.10;;
8887;SDS011;4480;52.370;9.748;2023-08-01T00:05:10;1.47;;;1.30;;
8887;SDS011;4480;52.370;9.748;2023-08-01T00:07:38;1.20;;;1.10;;
8887;SDS011;4480;52.370;9.748;2023-08-01T00:10:05;1.37;;;1.17;;
8887;SDS011;4480;52.370;9.748;2023-08-01T00:12:32;2.20;;;1.20;;
8887;SDS011;4480;52.370;9.748;2023-08-01T00:14:59;1.30;;;1.20;;
8887;SDS011;4480;52.370;9.748;2023-08-01T00:17:26;2.20;;;2.00;;
8887;SDS011;4480;52.370;9.748;2023-08-01T00:19:53;1.63;;;1.53;;
8887;SDS011;4480;52.370;9.748;2023-08-01T00:22:20;1.53;;;0.90;;
8887;SDS011;4480;52.370;9.748;2023-08-01T00:24:48;1.30;;;1.20;;
8887;SDS011;4480;52.370;9.748;2023-08-01T00:27:15;2.30;;;1.50;;
8887;SDS011;4480;52.370;9.748;2023-08-01T00:29:42;2.03;;;1.50;;
8887;SDS011;4480;52.370;9.748;2023-08-01T00:32:09;1.80;;;1.43;;
8887;SDS011;4480;52.370;9.748;2023-08-01T00:34:36;2.87;;;1.60;;
8887;SDS011;4480;52.370;9.748;2023-08-01T00:37:03;1.83;;;1.73;;
8887;SDS011;4480;52.370;9.748;2023-08-01T00:39:30;2.67;;;1.80;;
8887;SDS011;4480;52.370;9.748;2023-08-01T00:41:59;1.60;;;1.50;;
8887;SDS011;4480;52.370;9.748;2023-08-01T00:44:26;4.60;;;2.07;;
8887;SDS011;4480;52.370;9.748;2023-08-01T00:46:52;1.93;;;1.73;;
8887;SDS011;4480;52.370;9.748;2023-08-01T00:49:19;1.93;;;1.67;;
8887;SDS011;4480;52.370;9.748;2023-08-01T00:51:46;1.70;;;1.57;;
8887;SDS011;4480;52.370;9.748;2023-08-01T00:54:13;3.87;;;1.60;;
8887;SDS011;4480;52.370;9.748;2023-08-01T00:56:40;2.13;;;1.70;;
8887;SDS011;4480;52.370;9.748;2023-08-01T00:59:09;2.63;;;1.50;;
8887;SDS011;4480;52.370;9.748;2023-08-01T01:01:36;1.87;;;1.77;;
8887;SDS011;4480;52.370;9.748;2023-08-01T01:04:03;3.10;;;1.63;;
8887;SDS011;4480;52.370;9.748;2023-08-01T01:06:31;1.67;;;1.57;;
8887;SDS011;4480;52.370;9.748;2023-08-01T01:09:00;1.70;;;1.60;;
8887;SDS011;4480;52.370;9.748;2023-08-01T01:11:30;1.53;;;1.43;;
8887;SDS011;4480;52.370;9.748;2023-08-01T01:13:56;4.00;;;2.00;;
8887;SDS011;4480;52.370;9.748;2023-08-01T01:16:24;1.83;;;1.70;;
8887;SDS011;4480;52.370;9.748;2023-08-01T01:18:51;2.70;;;1.57;;
8887;SDS011;4480;52.370;9.748;2023-08-01T01:21:19;4.00;;;1.47;;
8887;SDS011;4480;52.370;9.748;2023-08-01T01:23:46;1.60;;;1.50;;
8887;SDS011;4480;52.370;9.748;2023-08-01T01:26:15;1.70;;;1.60;;
8887;SDS011;4480;52.370;9.748;2023-08-01T01:28:45;3.07;;;1.60;;
8887;SDS011;4480;52.370;9.748;2023-08-01T01:31:13;3.70;;;1.50;;
8887;SDS011;4480;52.370;9.748;2023-08-01T01:33:41;1.80;;;1.63;;
8887;SDS011;4480;52.370;9.748;2023-08-01T01:36:08;1.67;;;1.40;;
8887;SDS011;4480;52.370;9.748;2023-08-01T01:38:36;1.40;;;1.20;;
8887;SDS011;4480;52.370;9.748;2023-08-01T01:41:03;1.47;;;1.37;;
8887;SDS011;4480;52.370;9.748;2023-08-01T01:43:30;2.87;;;1.27;;
8887;SDS011;4480;52.370;9.748;2023-08-01T01:45:56;1.53;;;1.43;;
8887;SDS011;4480;52.370;9.748;2023-08-01T01:48:23;1.43;;;1.23;;
8887;SDS011;4480;52.370;9.748;2023-08-01T01:50:50;1.33;;;1.23;;
8887;SDS011;4480;52.370;9.748;2023-08-01T01:53:17;1.00;;;0.90;;
8887;SDS011;4480;52.370;9.748;2023-08-01T01:55:45;1.30;;;1.20;;
8887;SDS011;4480;52.370;9.748;2023-08-01T01:58:12;1.70;;;1.20;;
8887;SDS011;4480;52.370;9.748;2023-08-01T02:00:38;1.70;;;1.20;;
8887;SDS011;4480;52.370;9.748;2023-08-01T02:03:05;1.30;;;1.20;;
8887;SDS011;4480;52.370;9.748;2023-08-01T02:05:35;1.60;;;0.90;;
8887;SDS011;4480;52.370;9.748;2023-08-01T02:08:02;4.50;;;1.50;;
8887;SDS011;4480;52.370;9.748;2023-08-01T02:10:29;1.63;;;1.20;;
8887;SDS011;4480;52.370;9.748;2023-08-01T02:12:58;1.80;;;1.40;;
8887;SDS011;4480;52.370;9.748;2023-08-01T02:15:25;4.23;;;1.07;;
8887;SDS011;4480;52.370;9.748;2023-08-01T02:17:52;3.57;;;1.43;;
8887;SDS011;4480;52.370;9.748;2023-08-01T02:20:19;1.10;;;1.00;;
8887;SDS011;4480;52.370;9.748;2023-08-01T02:22:45;3.00;;;1.23;;
8887;SDS011;4480;52.370;9.748;2023-08-01T02:25:12;1.73;;;1.40;;
8887;SDS011;4480;52.370;9.748;2023-08-01T02:27:39;1.70;;;1.10;;
8887;SDS011;4480;52.370;9.748;2023-08-01T02:30:08;1.63;;;0.80;;
8887;SDS011;4480;52.370;9.748;2023-08-01T02:32:36;1.17;;;1.07;;
8887;SDS011;4480;52.370;9.748;2023-08-01T02:35:03;2.83;;;1.33;;
8887;SDS011;4480;52.370;9.748;2023-08-01T02:37:31;1.67;;;1.00;;
8887;SDS011;4480;52.370;9.748;2023-08-01T02:39:58;3.13;;;0.83;;
8887;SDS011;4480;52.370;9.748;2023-08-01T02:42:24;0.80;;;0.80;;
8887;SDS011;4480;52.370;9.748;2023-08-01T02:44:51;1.13;;;1.03;;
8887;SDS011;4480;52.370;9.748;2023-08-01T02:47:19;1.33;;;1.13;;
8887;SDS011;4480;52.370;9.748;2023-08-01T02:49:46;5.60;;;1.30;;
8887;SDS011;4480;52.370;9.748;2023-08-01T02:52:13;1.23;;;1.03;;
8887;SDS011;4480;52.370;9.748;2023-08-01T02:54:40;1.30;;;0.97;;
8887;SDS011;4480;52.370;9.748;2023-08-01T02:57:07;2.30;;;1.10;;
8887;SDS011;4480;52.370;9.748;2023-08-01T02:59:33;2.13;;;1.10;;
8887;SDS011;4480;52.370;9.748;2023-08-01T03:02:00;2.43;;;1.20;;
8887;SDS011;4480;52.370;9.748;2023-08-01T03:04:29;2.40;;;0.90;;
8887;SDS011;4480;52.370;9.748;2023-08-01T03:06:56;1.83;;;0.90;;
8887;SDS011;4480;52.370;9.748;2023-08-01T03:09:22;1.70;;;1.40;;
8887;SDS011;4480;52.370;9.748;2023-08-01T03:11:49;2.83;;;0.90;;
8887;SDS011;4480;52.370;9.748;2023-08-01T03:14:16;1.30;;;1.20;;
8887;SDS011;4480;52.370;9.748;2023-08-01T03:16:43;1.10;;;1.00;;
8887;SDS011;4480;52.370;9.748;2023-08-01T03:19:09;2.80;;;1.23;;
8887;SDS011;4480;52.370;9.748;2023-08-01T03:21:38;2.47;;;1.20;;
8887;SDS011;4480;52.370;9.748;2023-08-01T03:24:04;1.47;;;1.13;;
8887;SDS011;4480;52.370;9.748;2023-08-01T03:26:33;1.37;;;1.17;;
8887;SDS011;4480;52.370;9.748;2023-08-01T03:29:00;1.13;;;1.03;;
8887;SDS011;4480;52.370;9.748;2023-08-01T03:31:28;2.30;;;1.17;;
8887;SDS011;4480;52.370;9.748;2023-08-01T03:33:55;2.37;;;1.30;;
8887;SDS011;4480;52.370;9.748;2023-08-01T03:36:23;1.10;;;1.00;;
8887;SDS011;4480;52.370;9.748;2023-08-01T03:38:51;2.20;;;0.93;;
8887;SDS011;4480;52.370;9.748;2023-08-01T03:41:18;2.80;;;0.90;;
8887;SDS011;4480;52.370;9.748;2023-08-01T03:43:45;1.70;;;1.37;;
8887;SDS011;4480;52.370;9.748;2023-08-01T03:46:12;2.30;;;1.17;;
8887;SDS011;4480;52.370;9.748;2023-08-01T03:48:39;1.53;;;1.10;;
8887;SDS011;4480;52.370;9.748;2023-08-01T03:51:05;3.73;;;1.20;;
8887;SDS011;4480;52.370;9.748;2023-08-01T03:53:32;1.77;;;0.90;;
8887;SDS011;4480;52.370;9.748;2023-08-01T03:56:00;2.43;;;1.10;;
8887;SDS011;4480;52.370;9.748;2023-08-01T03:58:27;1.50;;;1.20;;
8887;SDS011;4480;52.370;9.748;2023-08-01T04:00:54;1.30;;;1.07;;
8887;SDS011;4480;52.370;9.748;2023-08-01T04:03:21;1.60;;;0.83;;
8887;SDS011;4480;52.370;9.748;2023-08-01T04:05:48;1.47;;;0.90;;
8887;SDS011;4480;52.370;9.748;2023-08-01T04:08:14;3.27;;;0.97;;
8887;SDS011;4480;52.370;9.748;2023-08-01T04:12:00;1.13;;;1.03;;
8887;SDS011;4480;52.370;9.748;2023-08-01T04:14:26;0.77;;;0.77;;
8887;SDS011;4480;52.370;9.748;2023-08-01T04:16:53;1.00;;;0.90;;
8887;SDS011;4480;52.370;9.748;2023-08-01T04:19:20;1.30;;;0.87;;
8887;SDS011;4480;52.370;9.748;2023-08-01T04:21:47;2.77;;;1.07;;
8887;SDS011;4480;52.370;9.748;2023-08-01T04:24:14;1.87;;;1.00;;
8887;SDS011;4480;52.370;9.748;2023-08-01T04:26:41;1.80;;;1.20;;
8887;SDS011;4480;52.370;9.748;2023-08-01T04:29:09;2.10;;;1.23;;
8887;SDS011;4480;52.370;9.748;2023-08-01T04:31:35;3.13;;;1.07;;
8887;SDS011;4480;52.370;9.748;2023-08-01T04:34:02;1.63;;;1.00;;
8887;SDS011;4480;52.370;9.748;2023-08-01T04:36:29;5.23;;;2.20;;
8887;SDS011;4480;52.370;9.748;2023-08-01T04:38:56;1.13;;;0.90;;
8887;SDS011;4480;52.370;9.748;2023-08-01T04:41:22;4.53;;;1.20;;
8887;SDS011;4480;52.370;9.748;2023-08-01T04:43:49;1.90;;;1.00;;
8887;SDS011;4480;52.370;9.748;2023-08-01T04:46:17;1.50;;;1.03;;
8887;SDS011;4480;52.370;9.748;2023-08-01T04:48:44;2.90;;;0.90;;
8887;SDS011;4480;52.370;9.748;2023-08-01T04:51:11;4.40;;;1.20;;
8887;SDS011;4480;52.370;9.748;2023-08-01T04:53:38;2.00;;;1.20;;
8887;SDS011;4480;52.370;9.748;2023-08-01T04:56:04;2.10;;;1.63;;
8887;SDS011;4480;52.370;9.748;2023-08-01T04:58:31;3.80;;;1.10;;
8887;SDS011;4480;52.370;9.748;2023-08-01T05:00:58;1.30;;;1.20;;
8887;SDS011;4480;52.370;9.748;2023-08-01T05:03:26;3.40;;;1.33;;
8887;SDS011;4480;52.370;9.748;2023-08-01T05:05:53;1.10;;;1.00;;
8887;SDS011;4480;52.370;9.748;2023-08-01T05:08:20;1.40;;;1.27;;
8887;SDS011;4480;52.370;9.748;2023-08-01T05:10:46;4.67;;;1.37;;
8887;SDS011;4480;52.370;9.748;2023-08-01T05:13:13;2.70;;;1.80;;
8887;SDS011;4480;52.370;9.748;2023-08-01T05:15:40;1.47;;;1.37;;
8887;SDS011;4480;52.370;9.748;2023-08-01T05:18:09;1.50;;;1.17;;
8887;SDS011;4480;52.370;9.748;2023-08-01T05:20:37;1.47;;;1.30;;
8887;SDS011;4480;52.370;9.748;2023-08-01T05:23:04;1.47;;;1.37;;
8887;SDS011;4480;52.370;9.748;2023-08-01T05:25:31;5.47;;;1.47;;
8887;SDS011;4480;52.370;9.748;2023-08-01T05:27:58;1.70;;;1.40;;
8887;SDS011;4480;52.370;9.748;2023-08-01T05:30:24;2.20;;;1.50;;
8887;SDS011;4480;52.370;9.748;2023-08-01T05:32:51;2.80;;;1.40;;
8887;SDS011;4480;52.370;9.748;2023-08-01T05:35:19;1.47;;;1.33;;
8887;SDS011;4480;52.370;9.748;2023-08-01T05:37:47;1.37;;;1.10;;
8887;SDS011;4480;52.370;9.748;2023-08-01T05:40:14;1.87;;;1.50;;
8887;SDS011;4480;52.370;9.748;2023-08-01T05:42:41;1.80;;;1.50;;
8887;SDS011;4480;52.370;9.748;2023-08-01T05:45:08;2.57;;;1.70;;
8887;SDS011;4480;52.370;9.748;2023-08-01T05:47:36;1.97;;;1.43;;
8887;SDS011;4480;52.370;9.748;2023-08-01T05:50:05;2.80;;;1.80;;
8887;SDS011;4480;52.370;9.748;2023-08-01T05:52:32;3.63;;;1.90;;
8887;SDS011;4480;52.370;9.748;2023-08-01T05:55:01;2.50;;;2.20;;
8887;SDS011;4480;52.370;9.748;2023-08-01T05:57:28;2.70;;;2.10;;
8887;SDS011;4480;52.370;9.748;2023-08-01T05:59:55;3.57;;;2.00;;
8887;SDS011;4480;52.370;9.748;2023-08-01T06:02:22;2.40;;;2.00;;
8887;SDS011;4480;52.370;9.748;2023-08-01T06:04:49;3.73;;;2.77;;
8887;SDS011;4480;52.370;9.748;2023-08-01T06:07:16;2.70;;;2.40;;
8887;SDS011;4480;52.370;9.748;2023-08-01T06:09:47;3.53;;;2.50;;
8887;SDS011;4480;52.370;9.748;2023-08-01T06:12:17;3.50;;;3.10;;
8887;SDS011;4480;52.370;9.748;2023-08-01T06:14:44;2.60;;;2.40;;
8887;SDS011;4480;52.370;9.748;2023-08-01T06:17:11;3.50;;;3.20;;
8887;SDS011;4480;52.370;9.748;2023-08-01T06:19:38;3.00;;;2.60;;
8887;SDS011;4480;52.370;9.748;2023-08-01T06:22:04;4.33;;;2.87;;
8887;SDS011;4480;52.370;9.748;2023-08-01T06:24:31;4.77;;;3.40;;
8887;SDS011;4480;52.370;9.748;2023-08-01T06:26:58;2.80;;;2.33;;
8887;SDS011;4480;52.370;9.748;2023-08-01T06:29:26;2.87;;;2.57;;
8887;SDS011;4480;52.370;9.748;2023-08-01T06:31:53;3.50;;;3.17;;
8887;SDS011;4480;52.370;9.748;2023-08-01T06:34:20;3.73;;;3.23;;
8887;SDS011;4480;52.370;9.748;2023-08-01T06:36:47;3.67;;;2.87;;
8887;SDS011;4480;52.370;9.748;2023-08-01T06:39:14;3.57;;;2.93;;
8887;SDS011;4480;52.370;9.748;2023-08-01T06:41:41;4.73;;;3.60;;
8887;SDS011;4480;52.370;9.748;2023-08-01T06:44:07;4.30;;;2.80;;
8887;SDS011;4480;52.370;9.748;2023-08-01T06:46:36;6.20;;;4.50;;
8887;SDS011;4480;52.370;9.748;2023-08-01T06:49:02;4.93;;;3.00;;
8887;SDS011;4480;52.370;9.748;2023-08-01T06:51:29;4.90;;;3.70;;
8887;SDS011;4480;52.370;9.748;2023-08-01T06:53:56;4.10;;;3.40;;
8887;SDS011;4480;52.370;9.748;2023-08-01T06:56:23;3.73;;;3.20;;
8887;SDS011;4480;52.370;9.748;2023-08-01T06:58:49;7.90;;;3.73;;
8887;SDS011;4480;52.370;9.748;2023-08-01T07:01:16;3.23;;;2.77;;
8887;SDS011;4480;52.370;9.748;2023-08-01T07:03:44;4.57;;;3.97;;
8887;SDS011;4480;52.370;9.748;2023-08-01T07:06:11;9.30;;;4.53;;
8887;SDS011;4480;52.370;9.748;2023-08-01T07:08:38;4.70;;;3.37;;
8887;SDS011;4480;52.370;9.748;2023-08-01T07:11:05;6.97;;;3.50;;
8887;SDS011;4480;52.370;9.748;2023-08-01T07:13:31;5.47;;;3.60;;
8887;SDS011;4480;52.370;9.748;2023-08-01T07:15:58;5.23;;;4.23;;
8887;SDS011;4480;52.370;9.748;2023-08-01T07:18:25;6.43;;;4.17;;
8887;SDS011;4480;52.370;9.748;2023-08-01T07:21:00;6.60;;;3.57;;
8887;SDS011;4480;52.370;9.748;2023-08-01T07:23:27;5.00;;;4.27;;
8887;SDS011;4480;52.370;9.748;2023-08-01T07:25:54;5.40;;;4.17;;
8887;SDS011;4480;52.370;9.748;2023-08-01T07:28:21;7.20;;;4.07;;
8887;SDS011;4480;52.370;9.748;2023-08-01T07:30:47;4.70;;;4.10;;
8887;SDS011;4480;52.370;9.748;2023-08-01T07:33:14;4.50;;;3.80;;
8887;SDS011;4480;52.370;9.748;2023-08-01T07:35:41;5.23;;;4.73;;
8887;SDS011;4480;52.370;9.748;2023-08-01T07:38:09;7.10;;;4.73;;
8887;SDS011;4480;52.370;9.748;2023-08-01T07:40:36;10.00;;;4.73;;
8887;SDS011;4480;52.370;9.748;2023-08-01T07:43:03;5.10;;;4.40;;
8887;SDS011;4480;52.370;9.748;2023-08-01T07:45:32;5.77;;;4.70;;
8887;SDS011;4480;52.370;9.748;2023-08-01T07:47:59;6.17;;;4.70;;
8887;SDS011;4480;52.370;9.748;2023-08-01T07:50:26;6.40;;;4.53;;
8887;SDS011;4480;52.370;9.748;2023-08-01T07:52:53;6.37;;;4.13;;
8887;SDS011;4480;52.370;9.748;2023-08-01T07:55:21;5.63;;;4.40;;
8887;SDS011;4480;52.370;9.748;2023-08-01T07:57:48;8.20;;;4.67;;
8887;SDS011;4480;52.370;9.748;2023-08-01T08:00:15;8.10;;;4.63;;
8887;SDS011;4480;52.370;9.748;2023-08-01T08:02:42;7.10;;;4.50;;
8887;SDS011;4480;52.370;9.748;2023-08-01T08:05:10;5.47;;;4.30;;
8887;SDS011;4480;52.370;9.748;2023-08-01T08:07:37;5.97;;;4.33;;
8887;SDS011;4480;52.370;9.748;2023-08-01T08:10:05;6.97;;;4.60;;
8887;SDS011;4480;52.370;9.748;2023-08-01T08:12:34;6.07;;;4.63;;
8887;SDS011;4480;52.370;9.748;2023-08-01T08:15:00;6.80;;;4.40;;
8887;SDS011;4480;52.370;9.748;2023-08-01T08:17:28;5.17;;;4.30;;
8887;SDS011;4480;52.370;9.748;2023-08-01T08:19:54;8.00;;;3.97;;
8887;SDS011;4480;52.370;9.748;2023-08-01T08:22:21;3.93;;;3.50;;
8887;SDS011;4480;52.370;9.748;2023-08-01T08:24:48;7.47;;;4.13;;
8887;SDS011;4480;52.370;9.748;2023-08-01T08:27:15;8.10;;;3.80;;
8887;SDS011;4480;52.370;9.748;2023-08-01T08:29:43;4.50;;;3.63;;
8887;SDS011;4480;52.370;9.748;2023-08-01T08:32:10;5.63;;;3.67;;
8887;SDS011;4480;52.370;9.748;2023-08-01T08:34:36;8.30;;;3.93;;
8887;SDS011;4480;52.370;9.748;2023-08-01T08:37:04;6.43;;;4.03;;
8887;SDS011;4480;52.370;9.748;2023-08-01T08:39:31;5.67;;;3.30;;
8887;SDS011;4480;52.370;9.748;2023-08-01T08:41:58;4.60;;;3.87;;
8887;SDS011;4480;52.370;9.748;2023-08-01T08:44:26;5.33;;;3.00;;
8887;SDS011;4480;52.370;9.748;2023-08-01T08:46:57;3.90;;;2.80;;
8887;SDS011;4480;52.370;9.748;2023-08-01T08:49:29;3.93;;;2.93;;
8887;SDS011;4480;52.370;9.748;2023-08-01T08:51:57;4.33;;;2.80;;
8887;SDS011;4480;52.370;9.748;2023-08-01T08:54:25;4.83;;;2.83;;
8887;SDS011;4480;52.370;9.748;2023-08-01T08:56:52;3.13;;;2.70;;
8887;SDS011;4480;52.370;9.748;2023-08-01T08:59:20;6.60;;;3.60;;
8887;SDS011;4480;52.370;9.748;2023-08-01T09:01:47;5.17;;;3.17;;
8887;SDS011;4480;52.370;9.748;2023-08-01T09:04:16;3.90;;;2.77;;
8887;SDS011;4480;52.370;9.748;2023-08-01T09:06:44;4.00;;;2.77;;
8887;SDS011;4480;52.370;9.748;2023-08-01T09:09:12;2.83;;;2.20;;
8887;SDS011;4480;52.370;9.748;2023-08-01T09:11:44;3.73;;;2.63;;
8887;SDS011;4480;52.370;9.748;2023-08-01T09:14:12;3.70;;;3.30;;
8887;SDS011;4480;52.370;9.748;2023-08-01T09:16:39;5.90;;;3.20;;
8887;SDS011;4480;52.370;9.748;2023-08-01T09:19:06;5.10;;;2.90;;
8887;SDS011;4480;52.370;9.748;2023-08-01T09:21:35;4.63;;;2.70;;
8887;SDS011;4480;52.370;9.748;2023-08-01T09:24:09;6.43;;;3.13;;
8887;SDS011;4480;52.370;9.748;2023-08-01T09:26:37;3.83;;;2.40;;
8887;SDS011;4480;52.370;9.748;2023-08-01T09:29:04;3.57;;;2.40;;
8887;SDS011;4480;52.370;9.748;2023-08-01T09:31:32;4.07;;;2.50;;
8887;SDS011;4480;52.370;9.748;2023-08-01T09:34:00;3.83;;;2.70;;
8887;SDS011;4480;52.370;9.748;2023-08-01T09:36:28;2.40;;;1.73;;
8887;SDS011;4480;52.370;9.748;2023-08-01T09:39:00;2.80;;;2.30;;
8887;SDS011;4480;52.370;9.748;2023-08-01T09:41:29;3.87;;;2.63;;
8887;SDS011;4480;52.370;9.748;2023-08-01T09:43:56;3.93;;;2.30;;
8887;SDS011;4480;52.370;9.748;2023-08-01T09:46:24;3.57;;;2.47;;
8887;SDS011;4480;52.370;9.748;2023-08-01T09:48:54;2.63;;;2.20;;
8887;SDS011;4480;52.370;9.748;2023-08-01T09:51:34;4.47;;;2.40;;
8887;SDS011;4480;52.370;9.748;2023-08-01T09:54:13;4.40;;;2.23;;
8887;SDS011;4480;52.370;9.748;2023-08-01T09:56:40;3.77;;;2.20;;
8887;SDS011;4480;52.370;9.748;2023-08-01T09:59:09;3.33;;;1.83;;
8887;SDS011;4480;52.370;9.748;2023-08-01T10:01:37;3.50;;;2.43;;
8887;SDS011;4480;52.370;9.748;2023-08-01T10:04:07;3.20;;;2.00;;
8887;SDS011;4480;52.370;9.748;2023-08-01T10:06:36;2.93;;;1.77;;
8887;SDS011;4480;52.370;9.748;2023-08-01T10:09:04;3.60;;;2.67;;
8887;SDS011;4480;52.370;9.748;2023-08-01T10:11:34;4.50;;;2.30;;
8887;SDS011;4480;52.370;9.748;2023-08-01T10:14:02;3.63;;;2.13;;
8887;SDS011;4480;52.370;9.748;2023-08-01T10:16:29;4.67;;;2.50;;
8887;SDS011;4480;52.370;9.748;2023-08-01T10:18:57;2.47;;;1.60;;
8887;SDS011;4480;52.370;9.748;2023-08-01T10:21:25;3.50;;;1.67;;
8887;SDS011;4480;52.370;9.748;2023-08-01T10:23:52;3.10;;;1.90;;
8887;SDS011;4480;52.370;9.748;2023-08-01T10:26:21;3.03;;;1.80;;
8887;SDS011;4480;52.370;9.748;2023-08-01T10:28:51;2.63;;;2.07;;
8887;SDS011;4480;52.370;9.748;2023-08-01T10:31:19;5.10;;;2.00;;
8887;SDS011;4480;52.370;9.748;2023-08-01T10:33:48;4.30;;;2.23;;
8887;SDS011;4480;52.370;9.748;2023-08-01T10:36:15;5.20;;;2.17;;
8887;SDS011;4480;52.370;9.748;2023-08-01T10:38:46;4.23;;;1.70;;
8887;SDS011;4480;52.370;9.748;2023-08-01T10:41:21;3.87;;;2.00;;
8887;SDS011;4480;52.370;9.748;2023-08-01T10:43:52;4.20;;;2.30;;
8887;SDS011;4480;52.370;9.748;2023-08-01T10:46:33;3.73;;;2.23;;
8887;SDS011;4480;52.370;9.748;2023-08-01T10:49:11;4.20;;;2.00;;
8887;SDS011;4480;52.370;9.748;2023-08-01T10:51:38;4.67;;;2.40;;
8887;SDS011;4480;52.370;9.748;2023-08-01T10:54:05;5.03;;;2.60;;
8887;SDS011;4480;52.370;9.748;2023-08-01T10:56:32;3.77;;;1.83;;
8887;SDS011;4480;52.370;9.748;2023-08-01T10:59:00;4.43;;;2.20;;
8887;SDS011;4480;52.370;9.748;2023-08-01T11:01:32;3.10;;;1.97;;
8887;SDS011;4480;52.370;9.748;2023-08-01T11:04:13;3.23;;;2.30;;
8887;SDS011;4480;52.370;9.748;2023-08-01T11:06:42;5.30;;;2.53;;
8887;SDS011;4480;52.370;9.748;2023-08-01T11:09:14;4.23;;;2.20;;
8887;SDS011;4480;52.370;9.748;2023-08-01T11:11:45;4.10;;;2.70;;
8887;SDS011;4480;52.370;9.748;2023-08-01T11:14:15;3.97;;;2.33;;
8887;SDS011;4480;52.370;9.748;2023-08-01T11:16:45;3.40;;;1.83;;
8887;SDS011;4480;52.370;9.748;2023-08-01T11:19:19;5.87;;;2.23;;
8887;SDS011;4480;52.370;9.748;2023-08-01T11:21:47;3.93;;;2.00;;
8887;SDS011;4480;52.370;9.748;2023-08-01T11:24:14;4.13;;;1.87;;
8887;SDS011;4480;52.370;9.748;2023-08-01T11:26:42;5.00;;;1.70;;
8887;SDS011;4480;52.370;9.748;2023-08-01T11:29:10;2.73;;;1.77;;
8887;SDS011;4480;52.370;9.748;2023-08-01T11:31:38;1.70;;;1.60;;
8887;SDS011;4480;52.370;9.748;2023-08-01T11:34:06;3.20;;;1.83;;
8887;SDS011;4480;52.370;9.748;2023-08-01T11:39:19;3.30;;;2.00;;
8887;SDS011;4480;52.370;9.748;2023-08-01T11:41:47;4.10;;;2.17;;
8887;SDS011;4480;52.370;9.748;2023-08-01T11:44:14;4.63;;;3.37;;
8887;SDS011;4480;52.370;9.748;2023-08-01T11:46:42;3.70;;;1.80;;
8887;SDS011;4480;52.370;9.748;2023-08-01T11:49:09;4.67;;;2.40;;
8887;SDS011;4480;52.370;9.748;2023-08-01T11:51:41;5.00;;;2.93;;
8887;SDS011;4480;52.370;9.748;2023-08-01T11:54:09;4.13;;;2.97;;
8887;SDS011;4480;52.370;9.748;2023-08-01T11:56:36;3.80;;;2.93;;
8887;SDS011;4480;52.370;9.748;2023-08-01T11:59:10;5.43;;;2.90;;
8887;SDS011;4480;52.370;9.748;2023-08-01T12:01:38;3.90;;;2.97;;
8887;SDS011;4480;52.370;9.748;2023-08-01T12:04:07;4.57;;;2.87;;
8887;SDS011;4480;52.370;9.748;2023-08-01T12:06:34;4.13;;;2.90;;
8887;SDS011;4480;52.370;9.748;2023-08-01T12:09:16;4.30;;;3.10;;
8887;SDS011;4480;52.370;9.748;2023-08-01T12:11:58;4.60;;;3.40;;
8887;SDS011;4480;52.370;9.748;2023-08-01T12:14:26;3.50;;;2.63;;
8887;SDS011;4480;52.370;9.748;2023-08-01T12:16:54;3.60;;;2.40;;
8887;SDS011;4480;52.370;9.748;2023-08-01T12:19:22;3.20;;;2.10;;
8887;SDS011;4480;52.370;9.748;2023-08-01T12:21:49;4.80;;;2.67;;
8887;SDS011;4480;52.370;9.748;2023-08-01T12:24:16;2.80;;;2.47;;
8887;SDS011;4480;52.370;9.748;2023-08-01T12:26:42;3.83;;;2.60;;
8887;SDS011;4480;52.370;9.748;2023-08-01T12:29:09;5.30;;;3.00;;
8887;SDS011;4480;52.370;9.748;2023-08-01T12:31:37;3.47;;;2.30;;
8887;SDS011;4480;52.370;9.748;2023-08-01T12:34:03;2.53;;;1.97;;
8887;SDS011;4480;52.370;9.748;2023-08-01T12:36:32;3.07;;;2.20;;
8887;SDS011;4480;52.370;9.748;2023-08-01T12:38:58;3.43;;;1.80;;
8887;SDS011;4480;52.370;9.748;2023-08-01T12:41:25;2.70;;;1.73;;
8887;SDS011;4480;52.370;9.748;2023-08-01T12:43:52;4.67;;;2.30;;
8887;SDS011;4480;52.370;9.748;2023-08-01T12:46:19;2.70;;;1.83;;
8887;SDS011;4480;52.370;9.748;2023-08-01T12:48:45;3.70;;;1.40;;
8887;SDS011;4480;52.370;9.748;2023-08-01T12:51:12;2.57;;;1.73;;
8887;SDS011;4480;52.370;9.748;2023-08-01T12:53:41;3.90;;;2.17;;
8887;SDS011;4480;52.370;9.748;2023-08-01T12:56:08;3.43;;;2.00;;
8887;SDS011;4480;52.370;9.748;2023-08-01T12:58:35;3.67;;;1.70;;
8887;SDS011;4480;52.370;9.748;2023-08-01T13:01:02;3.50;;;1.70;;
8887;SDS011;4480;52.370;9.748;2023-08-01T13:03:29;3.70;;;2.10;;
8887;SDS011;4480;52.370;9.748;2023-08-01T13:05:56;2.40;;;1.90;;
8887;SDS011;4480;52.370;9.748;2023-08-01T13:08:23;2.87;;;2.00;;
8887;SDS011;4480;52.370;9.748;2023-08-01T13:10:51;4.50;;;2.20;;
8887;SDS011;4480;52.370;9.748;2023-08-01T13:13:18;3.70;;;2.47;;
8887;SDS011;4480;52.370;9.748;2023-08-01T13:15:45;4.83;;;2.10;;
8887;SDS011;4480;52.370;9.748;2023-08-01T13:18:12;7.73;;;2.77;;
8887;SDS011;4480;52.370;9.748;2023-08-01T13:20:40;3.40;;;2.10;;
8887;SDS011;4480;52.370;9.748;2023-08-01T13:23:06;3.93;;;2.20;;
8887;SDS011;4480;52.370;9.748;2023-08-01T13:25:34;4.17;;;2.07;;
8887;SDS011;4480;52.370;9.748;2023-08-01T13:28:02;6.40;;;2.73;;
8887;SDS011;4480;52.370;9.748;2023-08-01T13:30:29;3.93;;;2.50;;
8887;SDS011;4480;52.370;9.748;2023-08-01T13:32:56;4.67;;;2.00;;
8887;SDS011;4480;52.370;9.748;2023-08-01T13:35:23;3.47;;;1.97;;
8887;SDS011;4480;52.370;9.748;2023-08-01T13:37:50;1.90;;;1.47;;
8887;SDS011;4480;52.370;9.748;2023-08-01T13:40:16;5.20;;;2.17;;
8887;SDS011;4480;52.370;9.748;2023-08-01T13:42:43;3.00;;;1.97;;
8887;SDS011;4480;52.370;9.748;2023-08-01T13:45:11;4.43;;;2.80;;
8887;SDS011;4480;52.370;9.748;2023-08-01T13:47:38;3.57;;;2.47;;
8887;SDS011;4480;52.370;9.748;2023-08-01T13:50:05;6.87;;;2.80;;
8887;SDS011;4480;52.370;9.748;2023-08-01T13:52:34;2.43;;;1.70;;
8887;SDS011;4480;52.370;9.748;2023-08-01T13:55:02;4.83;;;2.57;;
8887;SDS011;4480;52.370;9.748;2023-08-01T13:57:30;2.93;;;2.50;;
8887;SDS011;4480;52.370;9.748;2023-08-01T13:59:56;3.13;;;2.40;;
8887;SDS011;4480;52.370;9.748;2023-08-01T14:02:24;4.63;;;2.40;;
8887;SDS011;4480;52.370;9.748;2023-08-01T14:04:54;2.23;;;1.87;;
8887;SDS011;4480;52.370;9.748;2023-08-01T14:07:21;4.23;;;2.30;;
8887;SDS011;4480;52.370;9.748;2023-08-01T14:09:47;5.80;;;2.00;;
8887;SDS011;4480;52.370;9.748;2023-08-01T14:12:14;4.47;;;1.80;;
8887;SDS011;4480;52.370;9.748;2023-08-01T14:14:44;3.33;;;1.97;;
8887;SDS011;4480;52.370;9.748;2023-08-01T14:17:11;2.50;;;1.80;;
8887;SDS011;4480;52.370;9.748;2023-08-01T14:19:39;3.30;;;1.77;;
8887;SDS011;4480;52.370;9.748;2023-08-01T14:22:06;3.40;;;1.90;;
8887;SDS011;4480;52.370;9.748;2023-08-01T14:24:32;3.00;;;2.00;;
8887;SDS011;4480;52.370;9.748;2023-08-01T14:26:59;4.77;;;2.00;;
8887;SDS011;4480;52.370;9.748;2023-08-01T14:29:26;3.20;;;1.80;;
8887;SDS011;4480;52.370;9.748;2023-08-01T14:31:52;3.67;;;1.73;;
8887;SDS011;4480;52.370;9.748;2023-08-01T14:34:19;2.13;;;1.53;;
8887;SDS011;4480;52.370;9.748;2023-08-01T14:36:47;3.00;;;1.53;;
8887;SDS011;4480;52.370;9.748;2023-08-01T14:39:14;2.37;;;1.90;;
8887;SDS011;4480;52.370;9.748;2023-08-01T14:41:41;2.03;;;1.50;;
8887;SDS011;4480;52.370;9.748;2023-08-01T14:44:08;1.70;;;1.33;;
8887;SDS011;4480;52.370;9.748;2023-08-01T14:46:35;2.10;;;1.07;;
8887;SDS011;4480;52.370;9.748;2023-08-01T14:49:02;2.10;;;1.60;;
8887;SDS011;4480;52.370;9.748;2023-08-01T14:51:29;1.93;;;1.40;;
8887;SDS011;4480;52.370;9.748;2023-08-01T14:53:57;1.77;;;1.37;;
8887;SDS011;4480;52.370;9.748;2023-08-01T14:56:24;1.30;;;0.93;;
8887;SDS011;4480;52.370;9.748;2023-08-01T14:58:50;2.20;;;1.00;;
8887;SDS011;4480;52.370;9.748;2023-08-01T15:01:17;1.80;;;1.00;;
8887;SDS011;4480;52.370;9.748;2023-08-01T15:03:44;2.20;;;0.90;;
8887;SDS011;4480;52.370;9.748;2023-08-01T15:06:11;1.47;;;1.23;;
8887;SDS011;4480;52.370;9.748;2023-08-01T15:08:40;1.90;;;1.70;;
8887;SDS011;4480;52.370;9.748;2023-08-01T15:11:08;2.43;;;1.40;;
8887;SDS011;4480;52.370;9.748;2023-08-01T15:13:35;1.97;;;1.20;;
8887;SDS011;4480;52.370;9.748;2023-08-01T15:16:02;2.30;;;1.23;;
8887;SDS011;4480;52.370;9.748;2023-08-01T15:18:29;2.70;;;1.40;;
8887;SDS011;4480;52.370;9.748;2023-08-01T15:20:56;1.63;;;1.50;;